Battle Ground, WA (98604)

10:09 AM PST on February 11, 2016 (GMT -0800)
near Captain Strong Primary | | Change Station
CLOSE
Current Station
Personal Weather Station
Location: Battle Ground, WA
Elevation: 300 ft
Nearby Weather Stations

Elev 300 ft 45.79 °N, 122.54 °W | Updated 9 seconds ago

Overcast
Overcast
52.0 °F
Feels Like 52.0 °F
N
0.9
Wind Variable Wind from SW
Gusts 3.4 mph

Today
High -- | Low -- °F
--% Chance of Precip.
Yesterday
High -- | Low -- °F
Precip. -- in
Pressure 30.16 in
Visibility 10.0 miles
Clouds Overcast 8000 ft
Dew Point Not available.
Humidity Not available.
Rainfall 0.02 in
Snow Depth Not available.
7:18 AM 5:30 PM
Waxing Crescent, 13% visible
METAR KVUO 111753Z AUTO 00000KT 10SM OVC080 12/08 A3016 RMK AO2 RAE00 SLP213 P0000 60001 T01170083 10117 20083 51001
Pressure 30.16 in
Visibility 10.0 miles
Clouds Overcast 8000 ft
Dew Point Not available.
Humidity Not available.
Rainfall 0.02 in
Snow Depth Not available.
7:18 AM 5:30 PM
Waxing Crescent, 13% visible
METAR KVUO 111753Z AUTO 00000KT 10SM OVC080 12/08 A3016 RMK AO2 RAE00 SLP213 P0000 60001 T01170083 10117 20083 51001

10-Day Weather Forecast

Almanac

Astronomy

Feb. 11, 2016 Rise Set
Actual Time
Civil Twilight
Nautical Twilight
Astronomical Twilight
Moon
Length of Visible Light
Length of Day
Tomorrow will be .
, % of the Moon is Illuminated

Today's Extremes

State Highs State Lows

Community

WunderPhotos

Upload Photos

1,892,121 photos uploaded!

WunderBlog® & News

Nearby

Air Quality

  Air Quality AQ Index Pollutant
Not available.

Snow Depth

Station Depth Elevation

Earthquake Activity

City Distance Mag. Time & Date
Minimum magnitude displayed is 2.5.

Coastal Water Temperatures

Place Temperature

Stations

Nearby Weather Stations

Station Location Temp. Windchill Dew Point Humidity Wind Precip. Elev Updated Type
                   

Watches & Warnings

There are currently no watches in effect.